Latest Weather Observations for Mallacoota

IDV60801

Issued at 11:02 am EDT Sunday 11 December 2016 (issued every 30 minutes, with the page automatically refreshed every 10 minutes)

About weather observations | Map of weather stations | Latest weather observations for VIC | Other Formats
Station Details ID: 084084 Name: MALLACOOTA Lat: -37.60 Lon: 149.73 Height: 22.0 m
Data from the previous 72 hours. | See also: Recent months at Mallacoota
Date/Time
EDT
Temp
°C
App
Temp
°C
Dew
Point
°C
Rel
Hum
%
Delta-T
°C
Wind Press
QNH
hPa
Press
MSL
hPa
Rain since
9am
mm
Dir  Spd
km/h
Gust
km/h
Spd
kts
Gust
kts
11/11:00am 16.5 13.5 12.1 75 2.4 S 19 32 10 17 1023.8 1023.8 0.0
11/10:30am 16.6 13.8 11.5 72 2.8 S 17 28 9 15 1023.8 1023.8 0.0
11/10:00am 16.2 13.4 11.2 72 2.7 S 17 26 9 14 1023.8 1023.8 0.0
11/09:30am 16.9 15.3 10.1 64 3.6 WSW 9 15 5 8 1023.9 1023.9 0.0
11/09:00am 17.1 15.6 10.7 66 3.4 SW 9 19 5 10 1023.9 1023.9 0.0
11/08:30am 17.1 14.7 10.0 63 3.7 SW 13 20 7 11 1023.6 1023.6 0.0
11/08:00am 16.4 14.5 10.5 68 3.1 SW 11 19 6 10 1023.5 1023.5 0.0
11/07:30am 15.0 13.3 10.0 72 2.6 SW 9 15 5 8 1023.5 1023.5 0.0
11/07:00am 14.1 13.3 9.7 75 2.3 WSW 4 7 2 4 1023.3 1023.3 0.0
11/06:30am 13.9 12.7 9.5 75 2.3 W 6 11 3 6 1022.8 1022.8 0.0
11/06:00am 13.7 12.8 9.4 75 2.2 WSW 4 7 2 4 1022.8 1022.8 0.0
11/05:30am 13.7 12.5 9.6 76 2.1 NNW 6 9 3 5 1022.3 1022.3 0.0
11/05:00am 13.8 12.5 9.3 74 2.3 NNW 6 7 3 4 1022.3 1022.3 0.0
11/04:30am 13.8 12.4 8.8 72 2.5 NNW 6 7 3 4 1022.2 1022.2 0.0
11/04:00am 13.8 12.5 9.3 74 2.3 N 6 9 3 5 1022.2 1022.2 0.0
11/03:30am 13.8 12.4 9.0 73 2.4 NNW 6 9 3 5 1022.2 1022.2 0.0
11/03:00am 13.8 12.2 8.8 72 2.5 WNW 7 11 4 6 1022.1 1022.1 0.0
11/02:30am 13.7 12.1 8.7 72 2.5 SW 7 9 4 5 1022.2 1022.2 0.0
11/02:00am 13.7 12.7 9.0 73 2.4 W 4 7 2 4 1022.4 1022.4 0.0
11/01:30am 13.9 12.5 8.9 72 2.5 WNW 6 9 3 5 1022.6 1022.6 0.0
11/01:00am 13.9 12.6 9.1 73 2.4 WNW 6 7 3 4 1023.0 1023.0 0.0
11/12:30am 13.9 12.9 8.9 72 2.5 W 4 7 2 4 1023.1 1023.1 0.0
11/12:00am 14.0 12.6 9.0 72 2.5 WNW 6 9 3 5 1023.1 1023.1 0.0
 
Date/Time
EDT
Temp
°C
App
Temp
°C
Dew
Point
°C
Rel
Hum
%
Delta-T
°C
Wind Press
QNH
hPa
Press
MSL
hPa
Rain since
9am
mm
Dir  Spd
km/h
Gust
km/h
Spd
kts
Gust
kts
10/11:30pm 14.1 12.5 8.9 71 2.6 W 7 11 4 6 1023.3 1023.3 0.0
10/11:00pm 14.1 13.1 8.9 71 2.6 WNW 4 7 2 4 1023.4 1023.4 0.0
10/10:30pm 14.1 12.5 8.7 70 2.7 WNW 7 9 4 5 1023.5 1023.5 0.0
10/10:00pm 14.2 12.8 8.8 70 2.7 WNW 6 7 3 4 1023.3 1023.3 0.0
10/09:30pm 14.4 13.0 8.8 69 2.8 WSW 6 9 3 5 1023.1 1023.1 0.0
10/09:00pm 14.4 12.0 8.6 68 2.9 SW 11 17 6 9 1022.9 1022.9 0.0
10/08:30pm 14.5 11.7 8.7 68 2.9 SSW 13 19 7 10 1022.6 1022.6 0.0
10/08:00pm 14.5 11.7 8.7 68 2.9 SSW 13 20 7 11 1022.0 1022.0 0.0
10/07:30pm 14.7 11.2 8.6 67 3.1 SSW 17 24 9 13 1021.7 1021.7 0.0
10/07:00pm 15.5 11.8 9.4 67 3.1 SSW 19 28 10 15 1021.3 1021.3 0.0
10/06:30pm 16.0 12.6 9.2 64 3.5 S 17 26 9 14 1021.2 1021.2 0.0
10/06:00pm 15.8 11.0 9.0 64 3.5 S 24 33 13 18 1020.9 1020.9 0.0
10/05:30pm 16.0 11.5 8.5 61 3.8 S 22 33 12 18 1020.8 1020.8 0.0
10/05:00pm 16.9 12.5 8.8 59 4.2 SSW 22 33 12 18 1020.9 1020.9 0.0
10/04:30pm 16.3 10.8 9.3 63 3.6 S 28 44 15 24 1020.8 1020.8 0.0
10/04:00pm 16.7 11.9 8.9 60 4.0 S 24 37 13 20 1020.6 1020.6 0.0
10/03:30pm 17.2 12.7 9.9 62 3.8 S 24 39 13 21 1020.8 1020.8 0.0
10/03:00pm 17.3 12.6 9.2 59 4.2 S 24 39 13 21 1020.8 1020.8 0.0
10/02:30pm 17.2 12.2 9.4 60 4.1 S 26 43 14 23 1021.0 1021.0 0.0
10/02:00pm 17.6 13.0 9.5 59 4.2 S 24 39 13 21 1021.1 1021.1 0.0
10/01:30pm 17.4 12.8 9.6 60 4.1 S 24 35 13 19 1021.2 1021.2 0.0
10/01:02pm 16.5 10.8 8.2 58 4.2 S 28 48 15 26 1021.4 1021.4 0.0
10/01:00pm 17.2 12.0 8.9 58 4.3 S 26 43 14 23 1021.5 1021.5 0.0
10/12:44pm 17.3 12.3 7.9 54 4.8 S 24 44 13 24 1021.4 1021.4 0.0
10/12:30pm 18.4 15.5 8.1 51 5.3 SW 13 26 7 14 1021.9 1021.9 0.0
10/12:00pm 18.2 14.7 7.3 49 5.5 WSW 15 28 8 15 1022.0 1022.0 0.0
10/11:30am 17.8 13.7 7.8 52 5.1 SW 19 30 10 16 1022.3 1022.3 0.0
10/11:00am 17.0 13.1 7.1 52 4.9 W 17 26 9 14 1022.5 1022.5 0.0
10/10:30am 16.3 11.9 6.4 52 4.8 WSW 19 32 10 17 1022.6 1022.6 0.0
10/10:00am 16.3 12.2 6.4 52 4.8 WSW 17 30 9 16 1022.6 1022.6 0.0
10/09:30am 15.4 11.4 6.7 56 4.3 WSW 17 33 9 18 1022.4 1022.4 0.0
10/09:00am 14.8 11.2 6.6 58 4.0 WSW 15 26 8 14 1022.5 1022.5 1.4
10/08:30am 13.9 9.9 6.5 61 3.6 W 17 32 9 17 1022.3 1022.3 1.4
10/08:00am 13.2 9.6 6.8 65 3.1 WSW 15 24 8 13 1022.4 1022.4 1.4
10/07:30am 12.9 9.3 6.7 66 3.0 W 15 26 8 14 1021.8 1021.8 1.4
10/07:00am 12.5 9.2 6.5 67 2.8 W 13 22 7 12 1021.5 1021.5 1.4
10/06:30am 12.2 9.3 6.7 69 2.6 WSW 11 19 6 10 1021.1 1021.1 1.4
10/06:00am 12.0 9.6 6.9 71 2.4 W 9 13 5 7 1020.8 1020.8 1.4
10/05:30am 11.7 8.2 7.2 74 2.2 W 15 24 8 13 1020.4 1020.4 1.4
10/05:00am 11.7 7.8 7.2 74 2.2 W 17 28 9 15 1019.9 1019.9 1.4
10/04:30am 12.0 8.5 7.1 72 2.4 WSW 15 24 8 13 1019.7 1019.7 1.4
10/04:00am 12.0 9.0 7.5 74 2.2 W 13 22 7 12 1019.4 1019.4 1.4
10/03:30am 11.9 9.4 8.2 78 1.8 WSW 11 17 6 9 1019.4 1019.4 1.4
10/03:00am 11.7 9.3 8.7 82 1.5 W 11 19 6 10 1019.2 1019.2 1.4
10/02:30am 12.1 9.4 8.8 80 1.6 WSW 13 20 7 11 1019.3 1019.3 1.4
10/02:00am 11.7 9.4 8.9 83 1.4 WSW 11 19 6 10 1019.3 1019.3 1.4
10/01:30am 11.7 7.9 8.9 83 1.4 SW 19 32 10 17 1019.5 1019.5 1.4
10/01:00am 12.2 10.3 8.9 80 1.6 WSW 9 26 5 14 1019.6 1019.6 1.0
10/12:30am 12.8 10.3 8.1 73 2.3 SW 11 19 6 10 1019.4 1019.4 1.0
10/12:00am 12.3 9.5 8.6 78 1.8 SW 13 28 7 15 1019.5 1019.5 1.0
 
Date/Time
EDT
Temp
°C
App
Temp
°C
Dew
Point
°C
Rel
Hum
%
Delta-T
°C
Wind Press
QNH
hPa
Press
MSL
hPa
Rain since
9am
mm
Dir  Spd
km/h
Gust
km/h
Spd
kts
Gust
kts
09/11:30pm 12.1 7.7 8.9 81 1.6 SW 22 35 12 19 1019.5 1019.5 1.0
09/11:00pm 13.7 9.7 6.6 62 3.4 SW 17 28 9 15 1019.0 1019.0 1.0
09/10:30pm 13.7 9.2 7.0 64 3.3 SW 20 39 11 21 1018.7 1018.7 1.0
09/10:04pm 13.8 7.7 6.7 62 3.4 SW 28 52 15 28 1018.3 1018.3 1.0
09/10:00pm 13.8 8.1 6.7 62 3.4 SW 26 52 14 28 1018.2 1018.2 1.0
09/09:30pm 13.5 9.6 7.3 66 3.0 SW 17 32 9 17 1017.8 1017.8 1.0
09/09:00pm 13.4 8.9 6.3 62 3.4 SW 19 33 10 18 1017.5 1017.5 1.0
09/08:30pm 13.7 9.2 7.0 64 3.3 SW 20 33 11 18 1017.1 1017.1 1.0
09/08:00pm 14.0 9.1 6.8 62 3.5 SW 22 41 12 22 1016.6 1016.6 1.0
09/07:38pm 14.2 8.1 6.8 61 3.6 SW 28 54 15 29 1016.1 1016.1 1.0
09/07:30pm 14.3 8.6 6.9 61 3.6 SW 26 46 14 25 1015.9 1015.9 1.0
09/07:00pm 14.7 8.5 6.0 56 4.2 SW 28 57 15 31 1015.4 1015.4 1.0
09/06:30pm 15.0 8.3 5.8 54 4.4 SW 30 50 16 27 1014.8 1014.8 1.0
09/06:00pm 15.2 8.1 5.7 53 4.5 SW 32 52 17 28 1014.2 1014.2 1.0
09/05:40pm 15.3 9.0 5.5 52 4.7 SW 28 52 15 28 1014.0 1014.0 1.0
09/05:30pm 15.2 9.8 6.2 55 4.3 SW 24 43 13 23 1014.1 1014.1 1.0
09/05:02pm 15.4 9.2 6.2 54 4.4 SW 28 46 15 25 1013.8 1013.8 1.0
09/05:00pm 15.7 10.3 6.2 53 4.6 SW 24 44 13 24 1013.7 1013.7 1.0
09/04:30pm 15.4 8.4 5.9 53 4.6 SW 32 61 17 33 1013.4 1013.4 1.0
09/04:00pm 15.1 7.9 5.9 54 4.4 SW 33 54 18 29 1013.2 1013.2 1.0
09/03:30pm 15.5 7.8 5.4 51 4.8 SW 35 59 19 32 1012.8 1012.8 1.0
09/03:00pm 16.3 9.3 5.9 50 5.0 SW 32 59 17 32 1012.2 1012.2 1.0
09/02:30pm 16.1 9.0 6.5 53 4.7 SW 33 59 18 32 1011.7 1011.7 1.0
09/02:00pm 15.3 7.7 5.8 53 4.6 SW 35 74 19 40 1011.4 1011.4 1.0
09/01:30pm 15.8 8.1 5.4 50 5.0 SW 35 72 19 39 1011.2 1011.2 1.0
09/01:27pm 16.1 9.1 6.0 51 4.9 SW 32 72 17 39 1011.2 1011.2 1.0
09/01:00pm 15.1 8.8 7.4 60 3.8 WSW 30 52 16 28 1011.1 1011.1 1.0
09/12:38pm 14.8 8.9 7.4 61 3.7 SW 28 56 15 30 1010.8 1010.7 1.0
09/12:30pm 14.1 8.8 8.3 68 2.9 WSW 26 48 14 26 1010.8 1010.7 1.0
09/12:14pm 12.4 6.7 8.5 77 1.9 SW 28 50 15 27 1011.0 1011.0 1.0
09/12:00pm 12.3 7.5 8.8 79 1.8 WSW 24 50 13 27 1010.8 1010.7 1.0
09/11:33am 13.4 7.3 6.7 64 3.2 WSW 28 56 15 30 1010.4 1010.3 0.8
09/11:30am 13.8 8.7 7.6 66 3.1 WSW 24 54 13 29 1010.3 1010.2 0.8
09/11:00am 12.7 7.2 9.3 80 1.7 WSW 28 50 15 27 1009.9 1009.8 0.8
09/10:30am 12.0 7.4 9.6 85 1.2 WSW 24 44 13 24 1009.5 1009.4 0.4
09/10:00am 12.0 5.3 7.3 73 2.3 WSW 32 54 17 29 1009.2 1009.1 0.0
09/09:46am 13.7 7.7 7.0 64 3.3 WSW 28 52 15 28 1008.7 1008.6 0.0
09/09:30am 13.0 7.8 7.2 68 2.8 WSW 24 39 13 21 1008.6 1008.5 0.0
09/09:16am 13.0 6.9 6.6 65 3.1 WSW 28 50 15 27 1008.6 1008.5 0.0
09/09:00am 12.5 7.7 7.2 70 2.6 WSW 22 43 12 23 1008.5 1008.4 2.4
09/08:47am 11.7 5.8 7.4 75 2.1 WSW 28 50 15 27 1008.4 1008.3 2.4
09/08:30am 13.2 7.6 7.0 66 3.0 WSW 26 44 14 24 1007.8 1007.7 2.4
09/08:00am 12.6 8.2 7.5 71 2.5 WSW 20 35 11 19 1007.3 1007.2 2.4
09/07:30am 11.8 7.3 7.1 73 2.3 W 20 35 11 19 1006.8 1006.7 2.4
09/07:00am 12.1 8.4 8.0 76 2.0 WSW 17 26 9 14 1006.6 1006.5 2.4
09/06:30am 11.5 6.4 7.8 78 1.8 WSW 24 44 13 24 1005.6 1005.5 2.4
09/06:00am 12.6 8.0 6.6 67 2.9 WSW 20 39 11 21 1005.0 1004.9 2.4
09/05:30am 12.5 8.8 6.5 67 2.9 WSW 15 28 8 15 1004.3 1004.2 2.4
09/05:00am 12.8 8.8 6.6 66 3.0 WSW 17 30 9 16 1003.8 1003.7 2.4
09/04:30am 13.1 8.5 6.7 65 3.1 WSW 20 35 11 19 1003.2 1003.1 2.4
09/04:00am 13.2 8.7 7.0 66 3.0 WSW 20 43 11 23 1002.8 1002.7 2.4
09/03:30am 13.4 8.7 7.6 68 2.8 WSW 22 37 12 20 1002.6 1002.5 2.4
09/03:00am 13.7 9.0 7.7 67 3.0 WSW 22 37 12 20 1002.2 1002.1 2.4
09/02:30am 14.0 9.5 8.4 69 2.8 WSW 22 39 12 21 1001.7 1001.6 2.4
09/02:00am 14.5 9.8 9.1 70 2.8 WSW 24 44 13 24 1001.5 1001.4 2.4
09/01:30am 14.7 10.9 9.7 72 2.6 SW 20 33 11 18 1001.3 1001.2 2.4
09/01:00am 14.7 10.8 9.5 71 2.7 SW 20 39 11 21 1001.3 1001.2 2.4
09/12:30am 15.1 11.3 9.7 70 2.8 SW 20 44 11 24 1001.1 1001.0 2.4
09/12:15am 15.3 10.0 9.9 70 2.8 SW 28 46 15 25 1001.2 1001.1 2.4
09/12:00am 15.0 11.3 10.2 73 2.5 SW 20 41 11 22 1000.9 1000.8 2.4
 
Date/Time
EDT
Temp
°C
App
Temp
°C
Dew
Point
°C
Rel
Hum
%
Delta-T
°C
Wind Press
QNH
hPa
Press
MSL
hPa
Rain since
9am
mm
Dir  Spd
km/h
Gust
km/h
Spd
kts
Gust
kts
08/11:30pm 15.0 11.4 10.6 75 2.3 SW 20 39 11 21 1001.0 1000.9 2.4
08/11:00pm 13.4 12.6 11.8 90 0.9 W 7 15 4 8 1001.1 1001.0 2.4
08/10:30pm 13.5 12.8 11.9 90 0.9 WNW 7 13 4 7 1000.7 1000.6 2.4
08/10:00pm 13.4 12.8 11.8 90 0.9 NW 6 11 3 6 1000.2 1000.1 2.4
08/09:30pm 14.0 13.0 12.2 89 1.0 WNW 9 13 5 7 999.8 999.7 2.4
08/09:00pm 14.0 13.4 12.4 90 0.9 WNW 7 13 4 7 999.4 999.3 2.2
08/08:30pm 14.1 13.0 12.1 88 1.1 W 9 17 5 9 999.6 999.5 2.0
08/08:00pm 14.2 13.2 12.2 88 1.1 WSW 9 17 5 9 999.5 999.4 2.0
08/07:30pm 14.7 13.6 12.0 84 1.5 WSW 9 15 5 8 999.9 999.8 0.6
08/07:00pm 14.8 13.4 12.3 85 1.4 SSW 11 19 6 10 999.6 999.5 0.2
08/06:30pm 14.4 11.4 12.4 88 1.1 SSW 20 30 11 16 998.3 998.2 0.2
08/06:00pm 15.6 13.1 13.6 88 1.1 SSW 19 39 10 21 997.8 997.7 0.2
08/05:30pm 18.1 14.5 15.2 83 1.7 SW 28 48 15 26 997.1 997.0 0.0
08/05:06pm 23.0 20.7 15.6 63 4.4 W 22 56 12 30 996.2 996.1 0.0
08/05:00pm 24.0 23.5 17.0 65 4.4 NW 15 20 8 11 994.5 994.4 0.0
08/04:30pm 24.7 23.4 16.7 61 4.9 N 19 28 10 15 993.4 993.3 0.0
08/04:00pm 25.0 23.5 16.7 60 5.2 N 20 30 11 16 993.5 993.4 0.0
08/03:30pm 23.6 23.1 16.9 66 4.1 NNE 15 19 8 10 994.5 994.4 0.0
08/03:00pm 22.8 22.9 16.4 67 3.9 NE 11 15 6 8 995.0 994.9 0.0
08/02:30pm 23.7 23.7 16.2 63 4.6 N 11 15 6 8 995.7 995.6 0.0
08/02:00pm 23.7 22.7 15.5 60 5.0 N 15 30 8 16 996.5 996.4 0.0
08/01:30pm 24.1 23.0 15.3 58 5.3 NNE 15 20 8 11 996.8 996.7 0.0
08/01:00pm 24.8 22.5 14.0 51 6.4 N 19 26 10 14 997.4 997.3 0.0
08/12:30pm 25.9 23.7 13.4 46 7.3 N 17 24 9 13 998.0 997.9 0.0
08/12:00pm 25.8 23.1 13.0 45 7.5 N 19 32 10 17 998.5 998.4 0.0
08/11:30am 25.7 22.7 12.5 44 7.6 N 20 32 11 17 999.1 999.0 0.0

Other Formats:

Comma delimited format used in spreadsheet applications
http://www.bom.gov.au/fwo/IDV60801/IDV60801.94935.axf

JavaScript Object Notation format (JSON) in row-major order
http://www.bom.gov.au/fwo/IDV60801/IDV60801.94935.json